Time;durP1;ratioP1;P1;durP2;ratioP2;P2;SDS_P1;SDS_P2;PMS_P1;PMS_P2;Temp;Humidity;BMP_temperature;BMP_pressure;BME280_temperature;BME280_humidity;BME280_pressure;Samples;Min_cycle;Max_cycle;Signal;HPM_P1;HPM_P2
2022/12/24 00:00:11;;;;;;;175.20;90.63;;;;;;;;;;5056298;28;20067;-83
2022/12/24 00:03:02;;;;;;;166.38;81.32;;;;;;;;;;5077563;28;20028;-83
2022/12/24 00:05:48;;;;;;;164.93;79.15;;;;;;;;;;5066294;28;20037;-81
2022/12/24 00:08:34;;;;;;;149.25;71.00;;;;;;;;;;5057895;28;20044;-81
2022/12/24 00:11:20;;;;;;;143.57;66.00;;;;;;;;;;5056318;28;20049;-83
2022/12/24 00:14:05;;;;;;;133.50;65.90;;;;;;;;;;5056745;28;20398;-80
2022/12/24 00:16:50;;;;;;;152.20;74.68;;;;;;;;;;5056573;28;20474;-84
2022/12/24 00:19:35;;;;;;;210.43;104.57;;;;;;;;;;5054688;28;20041;-82
2022/12/24 00:22:20;;;;;;;208.88;110.05;;;;;;;;;;5056023;28;20040;-80
2022/12/24 00:25:06;;;;;;;172.70;92.38;;;;;;;;;;5056206;28;20049;-81
2022/12/24 00:27:52;;;;;;;204.35;100.60;;;;;;;;;;5056516;28;20049;-82
2022/12/24 00:30:38;;;;;;;185.18;95.95;;;;;;;;;;5056020;28;20041;-88
2022/12/24 00:33:23;;;;;;;193.18;96.13;;;;;;;;;;5055991;28;20041;-81
2022/12/24 00:36:09;;;;;;;183.32;93.53;;;;;;;;;;5055717;28;20475;-82
2022/12/24 00:38:55;;;;;;;184.27;96.97;;;;;;;;;;5061227;28;20406;-83
2022/12/24 00:41:40;;;;;;;177.10;87.35;;;;;;;;;;5047414;28;20041;-86
2022/12/24 00:44:25;;;;;;;166.98;82.03;;;;;;;;;;5055721;28;20045;-82
2022/12/24 00:47:10;;;;;;;173.77;85.00;;;;;;;;;;5055168;28;20054;-81
2022/12/24 00:49:56;;;;;;;156.32;75.95;;;;;;;;;;5055466;28;20041;-86
2022/12/24 00:52:42;;;;;;;147.73;69.15;;;;;;;;;;5053967;28;20041;-86
2022/12/24 00:55:27;;;;;;;150.88;70.72;;;;;;;;;;5055736;28;20049;-86
2022/12/24 00:58:14;;;;;;;149.98;68.22;;;;;;;;;;5053915;28;20049;-86
2022/12/24 01:01:00;;;;;;;146.05;66.95;;;;;;;;;;5055402;28;20048;-82
2022/12/24 01:03:46;;;;;;;133.93;64.55;;;;;;;;;;5055063;28;20040;-82
2022/12/24 01:06:32;;;;;;;139.23;65.80;;;;;;;;;;5060779;28;20049;-86
2022/12/24 01:09:17;;;;;;;125.55;59.20;;;;;;;;;;5054361;28;20391;-82
2022/12/24 01:12:02;;;;;;;123.97;58.40;;;;;;;;;;5055405;28;20398;-86
2022/12/24 01:14:47;;;;;;;115.82;55.28;;;;;;;;;;5055025;28;20478;-87
2022/12/24 01:17:33;;;;;;;111.78;49.67;;;;;;;;;;5046649;28;20037;-87
2022/12/24 01:20:19;;;;;;;111.78;51.67;;;;;;;;;;5053919;28;20045;-82
2022/12/24 01:23:04;;;;;;;115.20;51.92;;;;;;;;;;5060325;28;20045;-81
2022/12/24 01:25:50;;;;;;;126.20;54.05;;;;;;;;;;5054747;28;20048;-87
2022/12/24 01:28:35;;;;;;;127.28;63.25;;;;;;;;;;5046283;28;20041;-82
2022/12/24 01:31:21;;;;;;;142.50;64.72;;;;;;;;;;5060558;28;20049;-82
2022/12/24 01:34:06;;;;;;;135.60;67.55;;;;;;;;;;5054579;28;20049;-86
2022/12/24 01:36:52;;;;;;;144.60;68.63;;;;;;;;;;5060474;28;20041;-87
2022/12/24 01:39:38;;;;;;;141.02;68.30;;;;;;;;;;5046838;28;20041;-87
2022/12/24 01:45:33;;;;;;;167.35;78.55;;;;;;;;;;5060145;28;20397;-86
2022/12/24 01:48:37;;;;;;;156.50;75.65;;;;;;;;;;5054181;28;20037;-87
2022/12/24 01:51:38;;;;;;;160.73;75.40;;;;;;;;;;5060445;28;20049;-82
2022/12/24 01:54:30;;;;;;;179.20;80.80;;;;;;;;;;5054402;28;20048;-82
2022/12/24 01:57:23;;;;;;;182.18;88.53;;;;;;;;;;5053796;28;20060;-81
2022/12/24 02:00:11;;;;;;;178.00;88.22;;;;;;;;;;5054218;28;20390;-81
2022/12/24 02:02:58;;;;;;;199.68;96.57;;;;;;;;;;5053806;28;20041;-81
2022/12/24 02:05:52;;;;;;;202.40;92.78;;;;;;;;;;5053675;28;20041;-81
2022/12/24 02:08:40;;;;;;;229.40;107.88;;;;;;;;;;5054113;28;20045;-81
2022/12/24 02:11:25;;;;;;;181.68;87.97;;;;;;;;;;5053993;28;20049;-85
2022/12/24 02:14:12;;;;;;;205.85;96.15;;;;;;;;;;5053850;28;20519;-81
2022/12/24 02:17:35;;;;;;;203.45;99.82;;;;;;;;;;5053688;28;20044;-81
2022/12/24 02:20:23;;;;;;;205.40;98.93;;;;;;;;;;5031762;28;20045;-81
2022/12/24 02:23:40;;;;;;;193.57;97.47;;;;;;;;;;5078329;28;20045;-79
2022/12/24 02:26:45;;;;;;;172.38;89.97;;;;;;;;;;5056612;28;20100;-81
2022/12/24 02:29:51;;;;;;;198.80;97.95;;;;;;;;;;5052804;28;20053;-81
2022/12/24 02:32:52;;;;;;;179.05;92.25;;;;;;;;;;5053733;28;20037;-85
2022/12/24 02:36:05;;;;;;;174.32;88.13;;;;;;;;;;5059380;28;20060;-81
2022/12/24 02:39:14;;;;;;;184.23;100.22;;;;;;;;;;5046073;28;20049;-81
2022/12/24 02:42:05;;;;;;;190.15;95.78;;;;;;;;;;5060002;28;20402;-85
2022/12/24 02:44:58;;;;;;;190.55;99.35;;;;;;;;;;5052461;28;20040;-81
2022/12/24 02:47:45;;;;;;;178.18;94.07;;;;;;;;;;5053213;28;20040;-82
2022/12/24 02:50:30;;;;;;;186.48;92.55;;;;;;;;;;5053484;28;20494;-81
2022/12/24 02:53:15;;;;;;;154.60;77.13;;;;;;;;;;5053575;28;20041;-81
2022/12/24 02:56:01;;;;;;;165.02;83.82;;;;;;;;;;5053484;28;20045;-86
2022/12/24 02:59:15;;;;;;;163.98;81.90;;;;;;;;;;5052358;28;20041;-81
2022/12/24 03:02:31;;;;;;;144.10;70.90;;;;;;;;;;5045113;28;20045;-85
2022/12/24 03:05:19;;;;;;;128.63;64.93;;;;;;;;;;5053327;28;20045;-85
2022/12/24 03:08:23;;;;;;;129.05;66.53;;;;;;;;;;5058878;28;20037;-81
2022/12/24 03:11:14;;;;;;;125.65;60.67;;;;;;;;;;5053426;28;20049;-85
2022/12/24 03:14:00;;;;;;;119.88;62.03;;;;;;;;;;5059371;28;20391;-85
2022/12/24 03:16:46;;;;;;;111.97;59.53;;;;;;;;;;5053851;28;20045;-85
2022/12/24 03:19:32;;;;;;;128.65;60.83;;;;;;;;;;5057348;28;20037;-85
2022/12/24 03:22:17;;;;;;;112.88;57.58;;;;;;;;;;5057260;28;20470;-85
2022/12/24 03:25:03;;;;;;;105.30;52.13;;;;;;;;;;5062628;28;20044;-85
2022/12/24 03:27:49;;;;;;;104.55;52.65;;;;;;;;;;5056881;28;20410;-85
2022/12/24 03:30:37;;;;;;;96.43;46.00;;;;;;;;;;5056052;28;20037;-81
2022/12/24 03:33:23;;;;;;;129.80;56.58;;;;;;;;;;5062648;28;20049;-86
2022/12/24 03:36:08;;;;;;;128.00;59.55;;;;;;;;;;5062708;28;20048;-81
2022/12/24 03:38:54;;;;;;;135.38;65.30;;;;;;;;;;5056858;28;20048;-86
2022/12/24 03:41:39;;;;;;;128.82;67.80;;;;;;;;;;5057055;28;20041;-86
2022/12/24 03:44:25;;;;;;;117.32;58.58;;;;;;;;;;5056985;28;20041;-85
2022/12/24 03:47:10;;;;;;;123.57;60.42;;;;;;;;;;5055368;28;20049;-86
2022/12/24 03:49:56;;;;;;;113.80;60.03;;;;;;;;;;5062372;28;20062;-81
2022/12/24 03:52:41;;;;;;;115.15;56.85;;;;;;;;;;5056368;28;20049;-81
2022/12/24 03:55:27;;;;;;;109.78;52.65;;;;;;;;;;5056385;28;20048;-81
2022/12/24 03:58:13;;;;;;;105.45;53.65;;;;;;;;;;5056459;28;20053;-81
2022/12/24 04:00:58;;;;;;;105.20;52.28;;;;;;;;;;5055452;28;20044;-85
2022/12/24 04:03:43;;;;;;;91.60;44.53;;;;;;;;;;5056185;28;20482;-86
2022/12/24 04:06:30;;;;;;;81.30;42.17;;;;;;;;;;5056150;28;20049;-86
2022/12/24 04:09:16;;;;;;;84.57;43.45;;;;;;;;;;5056354;28;20097;-85
2022/12/24 04:12:02;;;;;;;93.30;46.60;;;;;;;;;;5056330;28;20052;-81
2022/12/24 04:14:47;;;;;;;88.35;46.85;;;;;;;;;;5061700;28;20040;-86
2022/12/24 04:17:32;;;;;;;98.65;48.92;;;;;;;;;;5055823;28;20037;-87
2022/12/24 04:20:17;;;;;;;108.03;53.50;;;;;;;;;;5062001;28;20414;-88
2022/12/24 04:23:03;;;;;;;113.88;57.53;;;;;;;;;;5056015;28;20045;-82
2022/12/24 04:25:49;;;;;;;125.40;59.72;;;;;;;;;;5056079;28;20048;-86
2022/12/24 04:28:34;;;;;;;104.15;55.47;;;;;;;;;;5061645;28;20036;-82
2022/12/24 04:31:20;;;;;;;114.70;56.30;;;;;;;;;;5056406;28;20045;-86
2022/12/24 04:34:05;;;;;;;117.60;62.88;;;;;;;;;;5056421;28;20140;-86
2022/12/24 04:36:51;;;;;;;117.85;59.83;;;;;;;;;;5047934;28;20037;-87
2022/12/24 04:39:36;;;;;;;122.25;59.22;;;;;;;;;;5068529;28;20053;-85
2022/12/24 04:42:21;;;;;;;116.38;59.08;;;;;;;;;;5073240;28;20041;-86
2022/12/24 04:45:07;;;;;;;116.22;56.40;;;;;;;;;;5060555;28;20483;-81
2022/12/24 04:47:52;;;;;;;112.97;60.58;;;;;;;;;;5055459;28;20410;-85
2022/12/24 04:50:38;;;;;;;116.22;58.80;;;;;;;;;;5055570;28;20041;-85
2022/12/24 04:53:24;;;;;;;120.93;61.75;;;;;;;;;;5054429;28;20045;-85
2022/12/24 04:56:20;;;;;;;121.40;59.35;;;;;;;;;;5054327;28;20053;-82
2022/12/24 04:59:04;;;;;;;98.22;49.28;;;;;;;;;;5055152;28;20049;-82
2022/12/24 05:01:49;;;;;;;115.75;55.85;;;;;;;;;;5055094;28;20402;-82
2022/12/24 05:04:35;;;;;;;109.00;52.30;;;;;;;;;;5054901;28;20487;-86
2022/12/24 05:07:21;;;;;;;106.25;54.25;;;;;;;;;;5060070;28;20041;-87
2022/12/24 05:10:07;;;;;;;112.78;54.70;;;;;;;;;;5060736;28;20049;-85
2022/12/24 05:12:52;;;;;;;118.78;57.47;;;;;;;;;;5047183;28;20057;-86
2022/12/24 05:15:38;;;;;;;116.30;57.20;;;;;;;;;;5060724;28;20049;-83
2022/12/24 05:18:23;;;;;;;106.40;52.33;;;;;;;;;;5060579;28;20033;-82
2022/12/24 05:21:20;;;;;;;89.53;47.58;;;;;;;;;;5054735;28;20040;-83
2022/12/24 05:27:09;;;;;;;99.13;43.63;;;;;;;;;;5055178;28;20033;-86
2022/12/24 05:29:56;;;;;;;90.60;43.53;;;;;;;;;;5054238;28;20049;-82
2022/12/24 05:32:41;;;;;;;96.43;46.83;;;;;;;;;;5046270;28;20048;-81
2022/12/24 05:35:26;;;;;;;106.43;51.85;;;;;;;;;;5060147;28;20044;-81
2022/12/24 05:38:11;;;;;;;114.93;55.30;;;;;;;;;;5054371;28;20033;-81
2022/12/24 05:40:56;;;;;;;111.38;53.58;;;;;;;;;;5053999;28;20410;-81
2022/12/24 05:43:42;;;;;;;101.22;47.63;;;;;;;;;;5060202;28;20486;-86
2022/12/24 05:46:27;;;;;;;92.53;47.45;;;;;;;;;;5054113;28;20044;-81
2022/12/24 05:49:12;;;;;;;96.95;47.28;;;;;;;;;;5054263;28;20044;-82
2022/12/24 05:51:57;;;;;;;104.25;49.00;;;;;;;;;;5053096;28;20048;-86
2022/12/24 05:54:42;;;;;;;91.68;45.67;;;;;;;;;;5059844;28;20033;-81
2022/12/24 05:57:28;;;;;;;90.75;47.53;;;;;;;;;;5054014;28;20052;-82
2022/12/24 06:00:14;;;;;;;102.18;51.75;;;;;;;;;;5053842;28;20399;-82
2022/12/24 06:02:59;;;;;;;99.65;48.97;;;;;;;;;;5054250;28;20052;-86
2022/12/24 06:05:45;;;;;;;108.40;54.10;;;;;;;;;;5054460;28;20045;-86
2022/12/24 06:08:31;;;;;;;108.00;55.85;;;;;;;;;;5054110;28;20398;-86
2022/12/24 06:11:19;;;;;;;119.78;55.75;;;;;;;;;;5053764;28;20486;-81
2022/12/24 06:14:04;;;;;;;111.75;55.92;;;;;;;;;;5053915;28;20041;-81
2022/12/24 06:16:50;;;;;;;125.13;60.97;;;;;;;;;;5054068;28;20033;-87
2022/12/24 06:19:36;;;;;;;141.45;71.25;;;;;;;;;;5059261;28;20048;-82
2022/12/24 06:22:21;;;;;;;139.52;71.47;;;;;;;;;;5053732;28;20041;-86
2022/12/24 06:25:07;;;;;;;148.75;71.88;;;;;;;;;;5053649;28;20045;-82
2022/12/24 06:27:52;;;;;;;171.85;82.55;;;;;;;;;;5058898;28;20037;-81
2022/12/24 06:30:38;;;;;;;155.60;76.53;;;;;;;;;;5053864;28;20041;-82
2022/12/24 06:33:24;;;;;;;167.60;87.55;;;;;;;;;;5053530;28;20394;-83
2022/12/24 06:36:13;;;;;;;154.63;78.18;;;;;;;;;;5053508;28;20041;-83
2022/12/24 06:38:59;;;;;;;163.57;77.85;;;;;;;;;;5053838;28;20033;-89
2022/12/24 06:41:45;;;;;;;150.35;75.15;;;;;;;;;;5059098;28;20060;-84
2022/12/24 06:44:30;;;;;;;178.65;87.20;;;;;;;;;;5052260;28;20052;-87
2022/12/24 06:47:16;;;;;;;128.43;64.45;;;;;;;;;;5059411;28;20048;-84
2022/12/24 06:50:02;;;;;;;145.07;73.43;;;;;;;;;;5052393;28;20041;-86
2022/12/24 06:52:48;;;;;;;175.57;86.05;;;;;;;;;;5064621;28;20048;-84
2022/12/24 06:55:33;;;;;;;173.45;85.38;;;;;;;;;;5082357;28;20029;-84
2022/12/24 06:58:19;;;;;;;161.95;80.53;;;;;;;;;;5064368;28;20049;-83
2022/12/24 07:01:06;;;;;;;174.25;80.15;;;;;;;;;;5059305;28;20048;-84
2022/12/24 07:03:51;;;;;;;130.65;64.68;;;;;;;;;;5048926;28;20049;-84
2022/12/24 07:06:36;;;;;;;139.82;70.88;;;;;;;;;;5056862;28;20526;-88
2022/12/24 07:09:21;;;;;;;137.82;63.15;;;;;;;;;;5056444;28;20040;-85
2022/12/24 07:12:07;;;;;;;131.20;66.82;;;;;;;;;;5062764;28;20049;-86
2022/12/24 07:14:52;;;;;;;141.18;75.53;;;;;;;;;;5062979;28;20037;-86
2022/12/24 07:17:37;;;;;;;149.10;73.78;;;;;;;;;;5057315;28;20393;-85
2022/12/24 07:20:22;;;;;;;164.93;79.82;;;;;;;;;;5056647;28;20049;-87
2022/12/24 07:23:08;;;;;;;164.30;83.22;;;;;;;;;;5057796;28;20041;-84
2022/12/24 07:25:53;;;;;;;153.13;80.07;;;;;;;;;;5050436;28;20040;-85
2022/12/24 07:28:39;;;;;;;150.45;77.60;;;;;;;;;;5062652;28;20045;-87
2022/12/24 07:31:25;;;;;;;203.88;94.05;;;;;;;;;;5062735;28;20483;-84
2022/12/24 07:34:10;;;;;;;166.45;81.70;;;;;;;;;;5056258;28;20044;-87
2022/12/24 07:36:58;;;;;;;163.05;86.72;;;;;;;;;;5062305;28;20041;-85
2022/12/24 07:39:43;;;;;;;157.35;79.60;;;;;;;;;;5056357;28;20494;-87
2022/12/24 07:42:28;;;;;;;176.68;91.50;;;;;;;;;;5042805;28;20041;-87
2022/12/24 07:45:14;;;;;;;179.52;97.80;;;;;;;;;;5061689;28;20401;-85
2022/12/24 07:47:59;;;;;;;165.30;90.15;;;;;;;;;;5056212;28;20044;-86
2022/12/24 07:50:47;;;;;;;176.73;93.72;;;;;;;;;;5055974;28;20402;-85
2022/12/24 07:53:33;;;;;;;159.13;85.10;;;;;;;;;;5056121;28;20335;-85
2022/12/24 07:56:19;;;;;;;164.07;86.68;;;;;;;;;;5056363;28;20513;-85
2022/12/24 07:59:04;;;;;;;176.45;95.35;;;;;;;;;;5063000;28;20045;-88
2022/12/24 08:01:49;;;;;;;181.80;99.38;;;;;;;;;;5055617;28;20053;-84
2022/12/24 08:04:35;;;;;;;201.18;102.35;;;;;;;;;;5062174;28;20049;-87
2022/12/24 08:07:22;;;;;;;176.43;97.10;;;;;;;;;;5054614;28;20040;-84
2022/12/24 08:10:08;;;;;;;186.40;102.55;;;;;;;;;;5055600;28;20041;-88
2022/12/24 08:12:56;;;;;;;123.10;63.30;;;;;;;;;;5061757;28;20060;-84
2022/12/24 08:15:45;;;;;;;132.15;70.57;;;;;;;;;;5062425;28;20045;-88
2022/12/24 08:18:41;;;;;;;118.95;64.80;;;;;;;;;;5057196;28;20041;-88
2022/12/24 08:21:31;;;;;;;124.78;68.25;;;;;;;;;;5049129;28;20049;-88
2022/12/24 08:24:19;;;;;;;146.52;76.38;;;;;;;;;;5063209;28;20041;-88
2022/12/24 08:27:04;;;;;;;174.73;95.28;;;;;;;;;;5061932;28;20041;-85
2022/12/24 08:29:52;;;;;;;180.43;94.60;;;;;;;;;;5062565;28;20494;-86
2022/12/24 08:32:41;;;;;;;276.55;126.47;;;;;;;;;;5056364;28;20045;-85
2022/12/24 08:35:26;;;;;;;191.57;97.47;;;;;;;;;;5061504;28;20498;-85
2022/12/24 08:38:12;;;;;;;174.90;91.90;;;;;;;;;;5055904;28;20032;-85
2022/12/24 08:40:57;;;;;;;191.02;101.15;;;;;;;;;;5042545;28;20045;-85
2022/12/24 08:43:43;;;;;;;175.15;93.28;;;;;;;;;;5065576;28;20037;-83
2022/12/24 08:46:28;;;;;;;161.63;87.53;;;;;;;;;;5057411;28;20033;-82
2022/12/24 08:49:14;;;;;;;138.73;77.15;;;;;;;;;;5055424;28;20037;-82
2022/12/24 08:52:00;;;;;;;163.55;86.97;;;;;;;;;;5062121;28;20394;-80
2022/12/24 08:54:45;;;;;;;147.30;79.38;;;;;;;;;;5055594;28;20037;-82
2022/12/24 08:57:33;;;;;;;166.25;94.50;;;;;;;;;;5055419;28;20057;-82
2022/12/24 09:00:19;;;;;;;132.07;73.57;;;;;;;;;;5055353;28;20431;-82
2022/12/24 09:03:04;;;;;;;116.15;62.83;;;;;;;;;;5054009;28;20577;-79
2022/12/24 09:05:52;;;;;;;122.40;65.57;;;;;;;;;;5056318;28;20398;-79
2022/12/24 09:08:37;;;;;;;113.80;58.78;;;;;;;;;;5080215;28;20033;-79
2022/12/24 09:11:23;;;;;;;92.63;51.05;;;;;;;;;;5072282;28;20045;-80
2022/12/24 09:14:08;;;;;;;107.53;52.42;;;;;;;;;;5063380;28;20037;-79
2022/12/24 09:16:53;;;;;;;103.57;51.75;;;;;;;;;;5055296;28;20045;-78
2022/12/24 09:19:39;;;;;;;106.18;55.78;;;;;;;;;;5054717;28;20036;-79
2022/12/24 09:22:24;;;;;;;98.05;53.25;;;;;;;;;;5061432;28;20037;-79
2022/12/24 09:25:09;;;;;;;92.22;49.47;;;;;;;;;;5054735;28;20041;-85
2022/12/24 09:27:55;;;;;;;86.93;47.42;;;;;;;;;;5054633;28;20040;-87
2022/12/24 09:30:40;;;;;;;100.35;54.50;;;;;;;;;;5055799;28;20041;-79
2022/12/24 09:33:28;;;;;;;108.00;57.50;;;;;;;;;;5061207;28;20049;-85
2022/12/24 09:36:13;;;;;;;97.00;54.05;;;;;;;;;;5060144;28;20053;-85
2022/12/24 09:38:59;;;;;;;123.55;71.85;;;;;;;;;;5054371;28;20041;-84
2022/12/24 09:42:32;;;;;;;96.38;52.13;;;;;;;;;;5054175;28;20041;-84
2022/12/24 09:45:30;;;;;;;102.90;55.13;;;;;;;;;;5032369;28;20045;-83
2022/12/24 09:48:20;;;;;;;105.28;56.60;;;;;;;;;;5054396;28;20049;-82
2022/12/24 09:51:29;;;;;;;111.00;61.60;;;;;;;;;;5054220;28;20044;-83
2022/12/24 09:54:24;;;;;;;106.05;61.50;;;;;;;;;;5053092;28;20037;-82
2022/12/24 09:57:39;;;;;;;122.57;66.40;;;;;;;;;;5052664;28;20487;-80
2022/12/24 10:00:29;;;;;;;128.65;71.60;;;;;;;;;;5052520;28;20041;-79
2022/12/24 10:03:17;;;;;;;138.05;73.57;;;;;;;;;;5053853;28;20060;-84
2022/12/24 10:06:35;;;;;;;161.40;86.55;;;;;;;;;;5054114;28;20037;-83
2022/12/24 10:10:00;;;;;;;132.40;73.68;;;;;;;;;;5053016;28;20402;-81
2022/12/24 10:13:05;;;;;;;181.13;99.85;;;;;;;;;;5053819;28;20487;-81
2022/12/24 10:16:01;;;;;;;162.95;94.28;;;;;;;;;;5053846;28;20410;-80
2022/12/24 10:19:44;;;;;;;156.32;89.32;;;;;;;;;;5053777;28;20049;-83
2022/12/24 10:22:37;;;;;;;164.15;91.88;;;;;;;;;;5038637;28;20053;-82
2022/12/24 10:26:07;;;;;;;160.65;89.78;;;;;;;;;;5053617;28;20045;-85
2022/12/24 10:29:12;;;;;;;168.77;97.97;;;;;;;;;;5038663;28;20044;-84
2022/12/24 10:32:07;;;;;;;178.82;104.80;;;;;;;;;;5053058;28;20053;-83
2022/12/24 10:35:17;;;;;;;154.60;91.75;;;;;;;;;;5059839;28;20040;-82
2022/12/24 10:38:07;;;;;;;156.43;84.20;;;;;;;;;;5059850;28;20067;-84
2022/12/24 10:40:55;;;;;;;152.80;84.18;;;;;;;;;;5053199;28;20048;-81
2022/12/24 10:43:44;;;;;;;122.13;70.78;;;;;;;;;;5052455;28;20040;-82
2022/12/24 10:46:39;;;;;;;121.07;67.47;;;;;;;;;;5052860;28;20390;-85
2022/12/24 10:49:42;;;;;;;115.45;62.95;;;;;;;;;;5053057;28;20078;-82
2022/12/24 10:52:32;;;;;;;125.65;68.22;;;;;;;;;;5059504;28;20048;-82
2022/12/24 10:55:18;;;;;;;132.70;73.10;;;;;;;;;;5054289;28;20048;-83
2022/12/24 10:58:11;;;;;;;162.60;90.63;;;;;;;;;;5053893;28;20049;-79
2022/12/24 11:00:56;;;;;;;175.73;98.38;;;;;;;;;;5055359;28;20417;-79
2022/12/24 11:03:42;;;;;;;174.38;94.22;;;;;;;;;;5057254;28;20045;-82
2022/12/24 11:06:28;;;;;;;167.95;97.43;;;;;;;;;;5055446;28;20041;-81
2022/12/24 11:09:30;;;;;;;148.40;87.90;;;;;;;;;;5055460;28;20049;-79
2022/12/24 11:12:21;;;;;;;177.35;94.90;;;;;;;;;;5053452;28;20093;-80
2022/12/24 11:15:18;;;;;;;173.25;95.57;;;;;;;;;;5053253;28;20494;-80
2022/12/24 11:18:13;;;;;;;153.80;83.60;;;;;;;;;;5053205;28;20033;-82
2022/12/24 11:20:59;;;;;;;139.80;75.65;;;;;;;;;;5053386;28;20045;-80
2022/12/24 11:23:51;;;;;;;118.88;66.18;;;;;;;;;;5074144;28;20041;-78
2022/12/24 11:26:38;;;;;;;109.40;64.55;;;;;;;;;;5055518;28;20049;-82
2022/12/24 11:29:26;;;;;;;123.15;70.53;;;;;;;;;;5053442;28;20037;-83
2022/12/24 11:32:20;;;;;;;148.15;82.20;;;;;;;;;;5053208;28;20057;-79
2022/12/24 11:35:07;;;;;;;149.43;84.40;;;;;;;;;;5058589;28;20037;-81
2022/12/24 11:38:01;;;;;;;163.15;100.05;;;;;;;;;;5054520;28;20487;-81
2022/12/24 11:40:49;;;;;;;140.50;82.13;;;;;;;;;;5062875;28;20041;-80
2022/12/24 11:43:45;;;;;;;146.60;86.50;;;;;;;;;;5056501;28;20053;-83
2022/12/24 11:46:42;;;;;;;144.45;84.05;;;;;;;;;;5056425;28;20037;-81
2022/12/24 11:49:30;;;;;;;144.82;81.95;;;;;;;;;;5056400;28;20061;-81
2022/12/24 11:52:21;;;;;;;141.85;80.10;;;;;;;;;;5055218;28;20064;-81
2022/12/24 11:55:17;;;;;;;128.18;70.85;;;;;;;;;;5056505;28;20044;-81
2022/12/24 11:58:25;;;;;;;140.85;78.00;;;;;;;;;;5055938;28;20402;-80
2022/12/24 12:01:27;;;;;;;160.90;84.15;;;;;;;;;;5056158;28;20490;-83
2022/12/24 12:04:21;;;;;;;159.25;80.55;;;;;;;;;;5056011;28;20041;-84
2022/12/24 12:07:14;;;;;;;113.45;61.08;;;;;;;;;;5056124;28;20037;-80
2022/12/24 12:10:09;;;;;;;98.90;50.63;;;;;;;;;;5056221;28;20049;-84
2022/12/24 12:13:09;;;;;;;93.75;50.40;;;;;;;;;;5055999;28;20049;-84
2022/12/24 12:16:04;;;;;;;85.70;48.10;;;;;;;;;;5055878;28;20391;-84
2022/12/24 12:18:58;;;;;;;98.40;50.70;;;;;;;;;;5062577;28;20041;-82
2022/12/24 12:21:45;;;;;;;;;;;;;;;;;;5056552;28;20037;-81
2022/12/24 12:24:38;;;;;;;112.25;58.97;;;;;;;;;;5055812;28;20351;-79
2022/12/24 12:27:32;;;;;;;116.70;59.53;;;;;;;;;;5061574;28;20040;-80
2022/12/24 12:30:20;;;;;;;138.90;79.25;;;;;;;;;;5056137;28;20398;-80
2022/12/24 12:33:16;;;;;;;161.45;90.18;;;;;;;;;;5055915;28;20037;-81
2022/12/24 12:36:03;;;;;;;158.02;94.22;;;;;;;;;;5055609;28;20037;-83
2022/12/24 12:38:50;;;;;;;123.10;67.57;;;;;;;;;;5062396;28;20037;-82
2022/12/24 12:41:57;;;;;;;150.57;77.82;;;;;;;;;;5055184;28;20041;-81
2022/12/24 12:45:05;;;;;;;194.40;111.20;;;;;;;;;;5055569;28;20056;-86
2022/12/24 12:48:09;;;;;;;161.40;87.65;;;;;;;;;;5054446;28;20049;-81
2022/12/24 12:51:24;;;;;;;155.23;82.80;;;;;;;;;;5054862;28;20041;-87
2022/12/24 12:54:21;;;;;;;155.18;82.68;;;;;;;;;;5054638;28;20053;-86
2022/12/24 12:57:12;;;;;;;138.00;76.90;;;;;;;;;;5055326;28;20041;-84
2022/12/24 13:00:08;;;;;;;137.90;77.32;;;;;;;;;;5055658;28;20390;-81
2022/12/24 13:03:37;;;;;;;146.23;82.97;;;;;;;;;;5055471;28;20037;-86
2022/12/24 13:06:35;;;;;;;157.98;84.30;;;;;;;;;;5038394;28;20045;-82
2022/12/24 13:09:51;;;;;;;144.48;80.18;;;;;;;;;;5054890;28;20045;-88
2022/12/24 13:12:36;;;;;;;154.00;81.32;;;;;;;;;;5054097;28;20044;-86
2022/12/24 13:15:28;;;;;;;157.40;88.60;;;;;;;;;;5061150;28;20045;-85
2022/12/24 13:18:22;;;;;;;172.52;96.78;;;;;;;;;;5054230;28;20041;-81
2022/12/24 13:21:22;;;;;;;158.93;88.03;;;;;;;;;;5060874;28;20057;-86
2022/12/24 13:24:17;;;;;;;163.52;89.07;;;;;;;;;;5055107;28;20057;-86
2022/12/24 13:27:04;;;;;;;158.85;86.93;;;;;;;;;;5047130;28;20506;-84
2022/12/24 13:30:01;;;;;;;146.05;86.32;;;;;;;;;;5060044;28;20044;-86
2022/12/24 13:32:52;;;;;;;145.98;79.35;;;;;;;;;;5055160;28;20398;-80
2022/12/24 13:35:57;;;;;;;181.80;98.25;;;;;;;;;;5055116;28;20049;-82
2022/12/24 13:38:56;;;;;;;201.98;113.38;;;;;;;;;;5077068;28;20033;-83
2022/12/24 13:41:49;;;;;;;203.77;109.65;;;;;;;;;;5058872;28;20053;-86
2022/12/24 13:44:35;;;;;;;156.40;86.53;;;;;;;;;;5055086;28;20394;-85
2022/12/24 13:47:25;;;;;;;169.02;91.15;;;;;;;;;;5053766;28;20044;-85
2022/12/24 13:50:23;;;;;;;163.20;86.05;;;;;;;;;;5054203;28;20037;-82
2022/12/24 13:53:31;;;;;;;159.07;87.57;;;;;;;;;;5053532;28;20052;-81
2022/12/24 13:56:16;;;;;;;158.93;86.75;;;;;;;;;;5053043;28;20056;-81
2022/12/24 13:59:19;;;;;;;190.13;105.43;;;;;;;;;;5054340;28;20048;-80
2022/12/24 14:02:11;;;;;;;218.15;120.78;;;;;;;;;;5054283;28;20421;-85
2022/12/24 14:05:01;;;;;;;179.52;99.82;;;;;;;;;;5054452;28;20482;-80
2022/12/24 14:07:49;;;;;;;149.60;89.25;;;;;;;;;;5054142;28;20045;-80
2022/12/24 14:10:44;;;;;;;154.35;88.00;;;;;;;;;;5053982;28;20041;-81
2022/12/24 14:14:02;;;;;;;201.90;108.88;;;;;;;;;;5055841;28;20041;-81
2022/12/24 14:16:50;;;;;;;196.70;103.25;;;;;;;;;;5055962;28;20049;-84
2022/12/24 14:19:46;;;;;;;151.95;80.47;;;;;;;;;;5056731;28;20048;-86
2022/12/24 14:22:43;;;;;;;142.13;71.40;;;;;;;;;;5059731;28;20045;-79
2022/12/24 14:25:28;;;;;;;134.80;70.40;;;;;;;;;;5053988;28;20048;-83
2022/12/24 14:28:18;;;;;;;144.70;79.30;;;;;;;;;;5053630;28;20041;-79
2022/12/24 14:31:10;;;;;;;148.77;80.32;;;;;;;;;;5054381;28;20482;-84
2022/12/24 14:34:13;;;;;;;119.25;64.25;;;;;;;;;;5053818;28;20045;-79
2022/12/24 14:37:02;;;;;;;114.53;63.13;;;;;;;;;;5055369;28;20478;-80
2022/12/24 14:39:55;;;;;;;178.60;94.47;;;;;;;;;;5053418;28;20037;-84
2022/12/24 14:42:57;;;;;;;208.93;123.75;;;;;;;;;;5053111;28;20045;-85
2022/12/24 14:45:58;;;;;;;220.75;122.32;;;;;;;;;;5053163;28;20045;-81
2022/12/24 14:48:59;;;;;;;178.68;103.45;;;;;;;;;;5053530;28;20044;-80
2022/12/24 14:52:12;;;;;;;161.15;90.72;;;;;;;;;;5053369;28;20037;-87
2022/12/24 14:54:57;;;;;;;156.43;87.80;;;;;;;;;;5059237;28;20045;-80
2022/12/24 14:57:43;;;;;;;144.77;83.20;;;;;;;;;;5053435;28;20045;-79
2022/12/24 15:00:28;;;;;;;153.32;80.72;;;;;;;;;;5059602;28;20044;-85
2022/12/24 15:03:15;;;;;;;144.05;84.65;;;;;;;;;;5059528;28;20036;-78
2022/12/24 15:06:07;;;;;;;117.80;65.70;;;;;;;;;;5054994;28;20052;-84
2022/12/24 15:08:52;;;;;;;164.88;93.53;;;;;;;;;;5053038;28;20037;-79
2022/12/24 15:11:37;;;;;;;155.90;85.32;;;;;;;;;;5059295;28;20494;-78
2022/12/24 15:14:26;;;;;;;183.82;101.82;;;;;;;;;;5057641;28;20041;-86
2022/12/24 15:17:15;;;;;;;192.30;108.13;;;;;;;;;;5059702;28;20052;-86
2022/12/24 15:20:16;;;;;;;169.95;96.68;;;;;;;;;;5057485;28;20037;-89
2022/12/24 15:23:02;;;;;;;175.05;101.18;;;;;;;;;;5057818;28;20501;-87
2022/12/24 15:25:47;;;;;;;184.60;102.15;;;;;;;;;;5057951;28;20040;-80
2022/12/24 15:28:38;;;;;;;185.80;108.80;;;;;;;;;;5057731;28;20036;-78
2022/12/24 15:31:24;;;;;;;183.35;109.32;;;;;;;;;;5056692;28;20048;-79
2022/12/24 15:34:44;;;;;;;170.52;100.97;;;;;;;;;;5057043;28;20407;-84
2022/12/24 15:37:37;;;;;;;226.57;126.40;;;;;;;;;;5063459;28;20044;-84
2022/12/24 15:40:23;;;;;;;188.05;110.18;;;;;;;;;;5057380;28;20402;-80
2022/12/24 15:43:09;;;;;;;181.65;104.43;;;;;;;;;;5056612;28;20052;-80
2022/12/24 15:45:55;;;;;;;185.02;106.30;;;;;;;;;;5055894;28;20053;-84
2022/12/24 15:48:44;;;;;;;217.25;121.30;;;;;;;;;;5055632;28;20045;-79
2022/12/24 15:51:33;;;;;;;216.95;121.28;;;;;;;;;;5058523;28;20053;-79
2022/12/24 15:54:25;;;;;;;232.93;120.95;;;;;;;;;;5074274;28;20044;-87
2022/12/24 15:57:19;;;;;;;205.32;117.25;;;;;;;;;;5058529;28;20053;-80
2022/12/24 16:00:23;;;;;;;211.15;119.43;;;;;;;;;;5056784;28;20386;-86
2022/12/24 16:03:19;;;;;;;240.35;137.98;;;;;;;;;;5062914;28;20045;-84
2022/12/24 16:06:06;;;;;;;273.27;157.18;;;;;;;;;;5056626;28;20045;-80
2022/12/24 16:08:55;;;;;;;254.43;149.82;;;;;;;;;;5056175;28;20045;-80
2022/12/24 16:11:40;;;;;;;253.32;149.88;;;;;;;;;;5055933;28;20037;-85
2022/12/24 16:14:25;;;;;;;275.40;164.18;;;;;;;;;;5055889;28;20052;-86
2022/12/24 16:17:20;;;;;;;300.85;173.82;;;;;;;;;;5056537;28;20402;-79
2022/12/24 16:20:18;;;;;;;322.10;196.70;;;;;;;;;;5055824;28;20041;-79
2022/12/24 16:23:04;;;;;;;309.52;188.43;;;;;;;;;;5063945;28;20045;-78